Time;durP1;ratioP1;P1;durP2;ratioP2;P2;SDS_P1;SDS_P2;PMS_P1;PMS_P2;Temp;Humidity;BMP_temperature;BMP_pressure;BME280_temperature;BME280_humidity;BME280_pressure;Samples;Min_cycle;Max_cycle;Signal;HPM_P1;HPM_P2
2022/06/10 00:00:12;;;;;;;5.30;2.45;;;;;;;;;;5081563;28;20309;-51
2022/06/10 00:02:37;;;;;;;4.75;2.65;;;;;;;;;;5078903;28;20105;-51
2022/06/10 00:05:02;;;;;;;3.95;2.30;;;;;;;;;;5078324;28;20471;-51
2022/06/10 00:07:33;;;;;;;5.35;2.65;;;;;;;;;;5079216;28;20019;-51
2022/06/10 00:09:59;;;;;;;5.55;3.20;;;;;;;;;;5073606;28;20044;-51
2022/06/10 00:12:24;;;;;;;3.97;2.13;;;;;;;;;;5071821;28;20081;-51
2022/06/10 00:14:50;;;;;;;4.07;2.40;;;;;;;;;;5081980;28;20021;-51
2022/06/10 00:17:17;;;;;;;4.03;2.40;;;;;;;;;;5079383;28;20020;-50
2022/06/10 00:19:42;;;;;;;4.47;2.20;;;;;;;;;;5080416;28;20111;-51
2022/06/10 00:22:08;;;;;;;5.45;2.60;;;;;;;;;;5080504;28;20096;-51
2022/06/10 00:24:33;;;;;;;3.47;2.30;;;;;;;;;;5075890;28;20474;-51
2022/06/10 00:26:59;;;;;;;4.28;2.42;;;;;;;;;;5077107;28;20019;-51
2022/06/10 00:29:24;;;;;;;3.65;2.25;;;;;;;;;;5079296;28;20063;-50
2022/06/10 00:31:49;;;;;;;5.78;2.17;;;;;;;;;;5075840;28;20028;-51
2022/06/10 00:34:15;;;;;;;3.28;2.25;;;;;;;;;;5083363;28;20023;-51
2022/06/10 00:36:40;;;;;;;4.40;2.40;;;;;;;;;;5079451;28;20102;-51
2022/06/10 00:39:05;;;;;;;4.23;2.63;;;;;;;;;;5078395;28;20024;-51
2022/06/10 00:41:30;;;;;;;4.65;2.22;;;;;;;;;;5079445;28;20306;-51
2022/06/10 00:43:56;;;;;;;6.82;2.20;;;;;;;;;;5078778;28;20012;-51
2022/06/10 00:46:24;;;;;;;3.28;2.38;;;;;;;;;;5081619;28;20020;-51
2022/06/10 00:48:55;;;;;;;4.22;2.50;;;;;;;;;;5073029;28;20008;-52
2022/06/10 00:51:22;;;;;;;3.50;2.25;;;;;;;;;;5082216;28;20024;-51
2022/06/10 00:53:49;;;;;;;3.90;2.28;;;;;;;;;;5075250;28;20019;-51
2022/06/10 00:56:16;;;;;;;2.78;2.30;;;;;;;;;;5077994;28;20024;-51
2022/06/10 00:58:44;;;;;;;5.43;2.42;;;;;;;;;;5078200;28;20400;-52
2022/06/10 01:01:09;;;;;;;6.15;2.53;;;;;;;;;;5082034;28;20020;-52
2022/06/10 01:03:35;;;;;;;2.92;2.10;;;;;;;;;;5081346;28;20028;-50
2022/06/10 01:06:01;;;;;;;4.30;1.98;;;;;;;;;;5076806;28;20051;-51
2022/06/10 01:08:26;;;;;;;4.13;2.38;;;;;;;;;;5079846;28;20041;-51
2022/06/10 01:10:58;;;;;;;6.88;2.50;;;;;;;;;;5080261;28;20494;-51
2022/06/10 01:13:23;;;;;;;2.80;2.45;;;;;;;;;;5081723;28;20031;-51
2022/06/10 01:15:54;;;;;;;5.15;2.63;;;;;;;;;;5080299;28;20028;-51
2022/06/10 01:18:45;;;;;;;4.47;2.42;;;;;;;;;;5078905;28;20051;-50
2022/06/10 01:21:30;;;;;;;4.00;2.40;;;;;;;;;;5075876;28;20463;-51
2022/06/10 01:24:13;;;;;;;6.82;2.70;;;;;;;;;;5080283;28;20863;-52
2022/06/10 01:29:44;;;;;;;4.32;2.83;;;;;;;;;;5080091;28;20067;-50
2022/06/10 01:32:10;;;;;;;3.45;2.60;;;;;;;;;;5078871;28;20111;-49
2022/06/10 01:34:46;;;;;;;3.97;2.63;;;;;;;;;;5074999;28;20478;-52
2022/06/10 01:37:15;;;;;;;4.10;2.78;;;;;;;;;;5077059;28;20024;-51
2022/06/10 01:39:40;;;;;;;5.25;2.63;;;;;;;;;;5079601;28;20032;-51
2022/06/10 01:42:25;;;;;;;4.00;2.40;;;;;;;;;;5076909;28;20015;-51
2022/06/10 01:44:50;;;;;;;4.22;2.38;;;;;;;;;;5076739;28;20282;-51
2022/06/10 01:47:16;;;;;;;4.28;2.40;;;;;;;;;;5077855;28;20110;-51
2022/06/10 01:50:02;;;;;;;3.63;2.58;;;;;;;;;;5079994;28;20024;-51
2022/06/10 01:52:38;;;;;;;4.85;2.60;;;;;;;;;;5068268;28;20018;-51
2022/06/10 01:55:05;;;;;;;4.90;2.28;;;;;;;;;;5075781;28;20059;-51
2022/06/10 01:57:34;;;;;;;3.22;2.47;;;;;;;;;;5076897;28;20407;-52
2022/06/10 02:00:01;;;;;;;3.33;2.25;;;;;;;;;;5075949;28;20478;-51
2022/06/10 02:02:27;;;;;;;3.78;2.83;;;;;;;;;;5076772;28;20012;-51
2022/06/10 02:04:54;;;;;;;3.05;2.25;;;;;;;;;;5074284;28;20068;-52
2022/06/10 02:07:21;;;;;;;4.13;2.60;;;;;;;;;;5078778;28;20036;-51
2022/06/10 02:09:48;;;;;;;2.75;2.40;;;;;;;;;;5080540;28;20027;-51
2022/06/10 02:12:21;;;;;;;5.15;2.50;;;;;;;;;;5080512;28;20034;-51
2022/06/10 02:14:54;;;;;;;5.18;3.05;;;;;;;;;;5079754;28;20522;-51
2022/06/10 02:17:19;;;;;;;2.95;2.60;;;;;;;;;;5062944;28;20683;-51
2022/06/10 02:19:45;;;;;;;5.63;3.20;;;;;;;;;;5060637;28;20021;-52
2022/06/10 02:22:12;;;;;;;4.25;2.35;;;;;;;;;;5077911;28;20081;-51
2022/06/10 02:24:42;;;;;;;3.85;2.30;;;;;;;;;;5076867;28;20019;-51
2022/06/10 02:27:08;;;;;;;3.03;1.90;;;;;;;;;;5065779;28;20016;-50
2022/06/10 02:29:45;;;;;;;3.38;2.40;;;;;;;;;;5073174;28;20523;-51
2022/06/10 02:32:10;;;;;;;4.30;2.50;;;;;;;;;;5075647;28;20012;-51
2022/06/10 02:34:35;;;;;;;4.78;2.42;;;;;;;;;;5078101;28;20020;-51
2022/06/10 02:37:00;;;;;;;5.85;2.90;;;;;;;;;;5070466;28;20033;-51
2022/06/10 02:39:53;;;;;;;4.63;2.40;;;;;;;;;;5076929;28;20016;-50
2022/06/10 02:42:19;;;;;;;4.07;2.60;;;;;;;;;;5070345;28;20263;-51
2022/06/10 02:44:54;;;;;;;4.68;2.83;;;;;;;;;;5078895;28;20407;-49
2022/06/10 02:47:26;;;;;;;3.10;2.22;;;;;;;;;;5076895;28;20020;-51
2022/06/10 02:49:51;;;;;;;4.40;2.35;;;;;;;;;;5074300;28;20107;-51
2022/06/10 02:52:16;;;;;;;4.45;2.58;;;;;;;;;;5080321;28;20151;-51
2022/06/10 02:54:43;;;;;;;5.30;2.42;;;;;;;;;;5082546;28;20034;-52
2022/06/10 02:57:13;;;;;;;3.17;2.30;;;;;;;;;;5070148;28;20510;-52
2022/06/10 03:02:24;;;;;;;4.45;2.17;;;;;;;;;;5080450;28;20615;-51
2022/06/10 03:05:01;;;;;;;5.22;2.08;;;;;;;;;;5079816;28;20081;-52
2022/06/10 03:07:37;;;;;;;3.10;2.40;;;;;;;;;;5080526;28;20095;-51
2022/06/10 03:10:03;;;;;;;4.40;2.20;;;;;;;;;;5082863;28;20563;-51
2022/06/10 03:12:33;;;;;;;4.47;2.35;;;;;;;;;;5080390;28;20024;-51
2022/06/10 03:15:05;;;;;;;4.47;2.20;;;;;;;;;;5068897;28;20585;-51
2022/06/10 03:17:33;;;;;;;4.30;2.30;;;;;;;;;;5071191;28;20908;-51
2022/06/10 03:20:03;;;;;;;6.93;2.80;;;;;;;;;;5072910;28;20023;-51
2022/06/10 03:22:28;;;;;;;;;;;;;;;;;;5101567;27;20028;-51
2022/06/10 03:25:12;;;;;;;3.97;2.23;;;;;;;;;;5071381;28;19909;-51
2022/06/10 03:27:43;;;;;;;4.43;2.55;;;;;;;;;;5076186;28;20113;-52
2022/06/10 03:30:12;;;;;;;4.85;2.78;;;;;;;;;;5075733;28;20063;-51
2022/06/10 03:32:48;;;;;;;4.97;2.70;;;;;;;;;;5103724;27;20031;-51
2022/06/10 03:35:15;;;;;;;3.88;2.63;;;;;;;;;;5081634;28;20077;-50
2022/06/10 03:37:41;;;;;;;3.33;2.20;;;;;;;;;;5071823;28;20851;-50
2022/06/10 03:40:06;;;;;;;4.53;2.72;;;;;;;;;;5080784;28;20122;-51
2022/06/10 03:42:31;;;;;;;3.83;2.78;;;;;;;;;;5076503;28;20012;-51
2022/06/10 03:44:57;;;;;;;4.72;2.65;;;;;;;;;;5073178;28;21932;-50
2022/06/10 03:47:25;;;;;;;4.05;2.53;;;;;;;;;;5079512;28;20055;-51
2022/06/10 03:49:59;;;;;;;7.18;3.38;;;;;;;;;;5082013;28;20540;-51
2022/06/10 03:52:25;;;;;;;5.70;3.60;;;;;;;;;;5063687;28;20034;-51
2022/06/10 03:54:51;;;;;;;5.22;2.83;;;;;;;;;;5079419;28;20024;-50
2022/06/10 03:57:17;;;;;;;4.63;3.20;;;;;;;;;;5067834;28;20024;-53
2022/06/10 03:59:43;;;;;;;4.07;2.90;;;;;;;;;;5074456;28;20181;-50
2022/06/10 04:02:08;;;;;;;4.10;2.90;;;;;;;;;;5079237;28;20475;-50
2022/06/10 04:04:33;;;;;;;4.72;3.72;;;;;;;;;;5073093;28;20392;-50
2022/06/10 04:06:59;;;;;;;4.80;3.22;;;;;;;;;;5072895;28;20020;-51
2022/06/10 04:09:24;;;;;;;5.40;3.80;;;;;;;;;;5070011;28;20004;-51
2022/06/10 04:11:49;;;;;;;5.70;3.63;;;;;;;;;;5067804;28;20066;-52
2022/06/10 04:14:15;;;;;;;5.35;3.15;;;;;;;;;;5070051;28;20302;-51
2022/06/10 04:16:40;;;;;;;5.72;3.17;;;;;;;;;;5072888;28;20214;-51
2022/06/10 04:19:05;;;;;;;6.00;2.88;;;;;;;;;;5073590;28;20395;-52
2022/06/10 04:21:31;;;;;;;5.40;3.30;;;;;;;;;;5070475;28;20050;-50
2022/06/10 04:23:56;;;;;;;6.35;3.38;;;;;;;;;;5073640;28;20297;-52
2022/06/10 04:26:21;;;;;;;5.30;3.63;;;;;;;;;;5073826;28;20016;-51
2022/06/10 04:28:47;;;;;;;5.20;3.40;;;;;;;;;;5076127;28;20118;-52
2022/06/10 04:31:13;;;;;;;5.68;3.42;;;;;;;;;;5068205;28;20028;-52
2022/06/10 04:33:38;;;;;;;5.47;3.33;;;;;;;;;;5067703;28;20017;-53
2022/06/10 04:36:04;;;;;;;4.97;3.00;;;;;;;;;;5074151;28;21850;-52
2022/06/10 04:38:29;;;;;;;4.45;3.30;;;;;;;;;;5074592;28;20085;-51
2022/06/10 04:40:54;;;;;;;5.30;3.40;;;;;;;;;;5073656;28;20537;-52
2022/06/10 04:43:20;;;;;;;5.37;3.40;;;;;;;;;;5072898;28;20095;-52
2022/06/10 04:45:47;;;;;;;7.03;3.50;;;;;;;;;;5076066;28;20369;-51
2022/06/10 04:48:12;;;;;;;6.05;3.08;;;;;;;;;;5077153;28;20465;-50
2022/06/10 04:50:38;;;;;;;4.50;3.30;;;;;;;;;;5079828;28;20028;-51
2022/06/10 04:53:03;;;;;;;6.55;3.40;;;;;;;;;;5080270;28;20052;-50
2022/06/10 04:55:28;;;;;;;6.53;3.90;;;;;;;;;;5080445;28;20027;-51
2022/06/10 04:57:54;;;;;;;4.43;3.67;;;;;;;;;;5080976;28;20016;-50
2022/06/10 05:00:20;;;;;;;6.25;3.60;;;;;;;;;;5078781;28;20208;-50
2022/06/10 05:02:46;;;;;;;5.75;3.55;;;;;;;;;;5082486;28;20012;-52
2022/06/10 05:05:11;;;;;;;5.88;2.95;;;;;;;;;;5078123;28;20150;-51
2022/06/10 05:07:36;;;;;;;5.30;3.33;;;;;;;;;;5077641;28;20699;-52
2022/06/10 05:10:02;;;;;;;5.38;3.47;;;;;;;;;;5080388;28;20027;-50
2022/06/10 05:12:28;;;;;;;5.95;3.72;;;;;;;;;;5076895;28;20020;-53
2022/06/10 05:14:53;;;;;;;4.80;3.08;;;;;;;;;;5078768;28;20024;-53
2022/06/10 05:17:18;;;;;;;7.00;3.78;;;;;;;;;;5078789;28;20024;-51
2022/06/10 05:19:46;;;;;;;5.13;3.40;;;;;;;;;;5079152;28;20023;-52
2022/06/10 05:22:12;;;;;;;6.00;3.38;;;;;;;;;;5079394;28;20042;-52
2022/06/10 05:24:37;;;;;;;5.28;3.55;;;;;;;;;;5081336;28;20016;-50
2022/06/10 05:27:03;;;;;;;7.50;3.63;;;;;;;;;;5080052;28;20055;-51
2022/06/10 05:29:28;;;;;;;5.13;3.70;;;;;;;;;;5078202;28;20039;-51
2022/06/10 05:31:53;;;;;;;5.90;3.80;;;;;;;;;;5079257;28;20031;-51
2022/06/10 05:37:02;;;;;;;5.78;3.90;;;;;;;;;;5070755;28;20092;-52
2022/06/10 05:39:28;;;;;;;7.65;4.20;;;;;;;;;;5078321;28;20039;-51
2022/06/10 05:42:05;;;;;;;6.53;3.72;;;;;;;;;;5076740;28;20024;-50
2022/06/10 05:44:33;;;;;;;6.85;4.30;;;;;;;;;;5079204;28;20049;-52
2022/06/10 05:47:00;;;;;;;6.20;4.18;;;;;;;;;;5073708;28;20090;-52
2022/06/10 05:49:25;;;;;;;8.50;3.95;;;;;;;;;;5072972;28;20468;-53
2022/06/10 05:51:51;;;;;;;5.47;4.03;;;;;;;;;;5077871;28;20024;-51
2022/06/10 05:54:16;;;;;;;6.85;4.05;;;;;;;;;;5075795;28;20667;-52
2022/06/10 05:56:43;;;;;;;6.55;4.13;;;;;;;;;;5080357;28;20488;-52
2022/06/10 05:59:09;;;;;;;6.05;4.30;;;;;;;;;;5075625;28;20396;-52
2022/06/10 06:01:34;;;;;;;6.43;4.30;;;;;;;;;;5078595;28;20036;-51
2022/06/10 06:03:59;;;;;;;6.80;4.72;;;;;;;;;;5076788;28;20487;-52
2022/06/10 06:06:25;;;;;;;6.10;3.73;;;;;;;;;;5080757;28;20016;-53
2022/06/10 06:08:50;;;;;;;6.25;4.28;;;;;;;;;;5081252;28;20851;-53
2022/06/10 06:11:16;;;;;;;4.93;3.97;;;;;;;;;;5073923;28;20036;-51
2022/06/10 06:13:42;;;;;;;6.50;4.13;;;;;;;;;;5071989;28;20077;-50
2022/06/10 06:16:08;;;;;;;5.63;3.80;;;;;;;;;;5073305;28;20467;-52
2022/06/10 06:18:34;;;;;;;6.78;4.20;;;;;;;;;;5072256;28;20478;-52
2022/06/10 06:20:59;;;;;;;6.55;3.83;;;;;;;;;;5074818;28;20499;-53
2022/06/10 06:23:24;;;;;;;6.63;3.55;;;;;;;;;;5075098;28;21428;-51
2022/06/10 06:25:50;;;;;;;5.40;3.90;;;;;;;;;;5072298;28;20116;-51
2022/06/10 06:28:16;;;;;;;6.32;4.10;;;;;;;;;;5070328;28;20291;-52
2022/06/10 06:30:41;;;;;;;7.47;4.35;;;;;;;;;;5065639;28;20619;-53
2022/06/10 06:33:08;;;;;;;7.80;3.97;;;;;;;;;;5066176;28;20052;-52
2022/06/10 06:35:33;;;;;;;7.32;4.63;;;;;;;;;;5065868;28;20384;-52
2022/06/10 06:38:02;;;;;;;6.00;3.83;;;;;;;;;;5064993;28;20028;-51
2022/06/10 06:40:28;;;;;;;6.47;4.40;;;;;;;;;;5075540;28;20067;-50
2022/06/10 06:42:53;;;;;;;6.78;4.55;;;;;;;;;;5067066;28;20565;-54
2022/06/10 06:45:20;;;;;;;6.32;3.97;;;;;;;;;;5071891;28;20661;-51
2022/06/10 06:47:45;;;;;;;6.57;4.22;;;;;;;;;;5070480;28;20025;-54
2022/06/10 06:50:13;;;;;;;5.60;3.90;;;;;;;;;;5070316;28;20043;-52
2022/06/10 06:52:39;;;;;;;5.20;3.70;;;;;;;;;;5077709;28;20032;-51
2022/06/10 06:55:04;;;;;;;6.85;3.85;;;;;;;;;;5076370;28;20027;-52
2022/06/10 06:57:30;;;;;;;8.48;4.32;;;;;;;;;;5078279;28;20028;-52
2022/06/10 07:00:04;;;;;;;7.80;4.07;;;;;;;;;;5072982;28;20051;-51
2022/06/10 07:02:30;;;;;;;5.43;4.15;;;;;;;;;;5069278;28;20518;-52
2022/06/10 07:04:55;;;;;;;5.65;3.83;;;;;;;;;;5066223;28;20032;-51
2022/06/10 07:07:20;;;;;;;10.48;5.18;;;;;;;;;;5068097;28;20016;-51
2022/06/10 07:09:46;;;;;;;5.63;4.25;;;;;;;;;;5070685;28;20028;-52
2022/06/10 07:12:11;;;;;;;5.97;3.90;;;;;;;;;;5064532;28;20030;-51
2022/06/10 07:14:36;;;;;;;7.13;4.43;;;;;;;;;;5071918;28;20897;-52
2022/06/10 07:17:02;;;;;;;5.20;3.42;;;;;;;;;;5067294;28;20286;-49
2022/06/10 07:19:27;;;;;;;6.75;3.80;;;;;;;;;;5069747;28;20016;-50
2022/06/10 07:21:52;;;;;;;8.63;4.00;;;;;;;;;;5069154;28;20514;-50
2022/06/10 07:24:17;;;;;;;4.78;3.90;;;;;;;;;;5070444;28;20269;-49
2022/06/10 07:26:43;;;;;;;7.65;4.40;;;;;;;;;;5071502;28;20044;-52
2022/06/10 07:29:10;;;;;;;7.05;4.07;;;;;;;;;;5072591;28;20517;-50
2022/06/10 07:31:36;;;;;;;6.10;4.15;;;;;;;;;;5078030;28;20288;-50
2022/06/10 07:34:01;;;;;;;5.90;4.10;;;;;;;;;;5077196;28;20490;-50
2022/06/10 07:36:27;;;;;;;6.35;3.88;;;;;;;;;;5080532;28;20523;-52
2022/06/10 07:38:52;;;;;;;5.68;4.13;;;;;;;;;;5079854;28;20498;-51
2022/06/10 07:44:01;;;;;;;5.53;4.15;;;;;;;;;;5084567;28;20062;-51
2022/06/10 07:46:27;;;;;;;6.43;4.05;;;;;;;;;;5082547;28;20627;-51
2022/06/10 07:48:52;;;;;;;6.28;4.45;;;;;;;;;;5083268;28;20104;-50
2022/06/10 07:51:18;;;;;;;6.57;4.72;;;;;;;;;;5081589;28;20024;-51
2022/06/10 07:53:43;;;;;;;5.97;4.63;;;;;;;;;;5081326;28;20094;-51
2022/06/10 07:56:09;;;;;;;7.82;6.07;;;;;;;;;;5079583;28;20135;-51
2022/06/10 07:58:34;;;;;;;7.85;4.65;;;;;;;;;;5079227;28;20165;-52
2022/06/10 08:01:00;;;;;;;7.30;4.70;;;;;;;;;;5082955;28;20107;-51
2022/06/10 08:03:26;;;;;;;8.60;5.65;;;;;;;;;;5084397;28;20505;-51
2022/06/10 08:05:51;;;;;;;6.50;4.57;;;;;;;;;;5084590;28;20457;-51
2022/06/10 08:08:17;;;;;;;10.60;5.38;;;;;;;;;;5085262;28;20004;-50
2022/06/10 08:10:43;;;;;;;7.30;4.30;;;;;;;;;;5084463;28;20044;-51
2022/06/10 08:13:08;;;;;;;7.15;4.65;;;;;;;;;;5083032;28;20463;-51
2022/06/10 08:15:33;;;;;;;7.32;4.72;;;;;;;;;;5083529;28;20032;-52
2022/06/10 08:17:58;;;;;;;7.18;4.65;;;;;;;;;;5079062;28;20043;-51
2022/06/10 08:23:13;;;;;;;7.27;4.33;;;;;;;;;;5082194;28;20023;-51
2022/06/10 08:25:39;;;;;;;6.97;4.13;;;;;;;;;;5081301;28;20024;-52
2022/06/10 08:28:04;;;;;;;6.78;4.10;;;;;;;;;;5078962;28;20064;-50
2022/06/10 08:30:30;;;;;;;6.70;3.78;;;;;;;;;;5082510;28;20774;-51
2022/06/10 08:32:55;;;;;;;6.30;3.92;;;;;;;;;;5068889;28;20061;-51
2022/06/10 08:35:20;;;;;;;6.05;5.03;;;;;;;;;;5078170;28;20116;-52
2022/06/10 08:37:45;;;;;;;6.43;3.58;;;;;;;;;;5080282;28;20158;-50
2022/06/10 08:40:17;;;;;;;7.23;4.03;;;;;;;;;;5078790;28;20047;-51
2022/06/10 08:42:42;;;;;;;5.22;3.90;;;;;;;;;;5080001;28;20382;-51
2022/06/10 08:45:08;;;;;;;5.32;4.30;;;;;;;;;;5072812;28;20655;-52
2022/06/10 08:47:52;;;;;;;5.57;3.90;;;;;;;;;;5072945;28;20031;-52
2022/06/10 08:50:23;;;;;;;5.32;3.55;;;;;;;;;;5070329;28;20387;-52
2022/06/10 08:52:48;;;;;;;6.28;3.80;;;;;;;;;;5073998;28;20052;-52
2022/06/10 08:55:20;;;;;;;5.28;3.83;;;;;;;;;;5077091;28;20071;-52
2022/06/10 08:57:46;;;;;;;5.78;3.83;;;;;;;;;;5071512;28;20050;-51
2022/06/10 09:00:20;;;;;;;5.32;3.67;;;;;;;;;;5071689;28;20021;-52
2022/06/10 09:02:52;;;;;;;5.50;3.58;;;;;;;;;;5072627;28;20268;-51
2022/06/10 09:05:20;;;;;;;4.43;3.47;;;;;;;;;;5074538;28;20024;-52
2022/06/10 09:08:13;;;;;;;5.95;3.85;;;;;;;;;;5070571;28;20525;-51
2022/06/10 09:11:02;;;;;;;6.20;3.70;;;;;;;;;;5077551;28;20139;-51
2022/06/10 09:13:30;;;;;;;6.57;3.90;;;;;;;;;;5072411;28;20063;-51
2022/06/10 09:16:03;;;;;;;6.10;4.05;;;;;;;;;;5078502;28;20031;-51
2022/06/10 09:18:48;;;;;;;5.97;4.20;;;;;;;;;;5066519;28;20095;-51
2022/06/10 09:21:25;;;;;;;6.38;3.78;;;;;;;;;;5044690;28;20028;-51
2022/06/10 09:23:50;;;;;;;5.68;3.25;;;;;;;;;;5076557;28;20027;-50
2022/06/10 09:26:28;;;;;;;8.77;3.70;;;;;;;;;;5074342;28;20019;-51
2022/06/10 09:28:54;;;;;;;6.28;4.00;;;;;;;;;;5069261;28;20365;-52
2022/06/10 09:31:25;;;;;;;4.95;4.03;;;;;;;;;;5080945;28;20762;-51
2022/06/10 09:34:09;;;;;;;5.05;3.80;;;;;;;;;;5077346;28;20027;-52
2022/06/10 09:36:40;;;;;;;5.88;4.60;;;;;;;;;;5070536;28;20509;-54
2022/06/10 09:42:13;;;;;;;6.55;4.50;;;;;;;;;;5068047;28;20104;-51
2022/06/10 09:44:38;;;;;;;8.70;4.90;;;;;;;;;;5074136;28;20028;-51
2022/06/10 09:47:24;;;;;;;11.50;5.03;;;;;;;;;;5078964;28;20470;-52
2022/06/10 09:49:54;;;;;;;6.32;4.72;;;;;;;;;;5072788;28;20296;-51
2022/06/10 09:52:31;;;;;;;7.53;4.68;;;;;;;;;;5074041;28;20121;-51
2022/06/10 09:55:05;;;;;;;11.05;6.20;;;;;;;;;;5078178;28;20028;-52
2022/06/10 09:57:37;;;;;;;8.02;5.80;;;;;;;;;;5078929;28;20080;-53
2022/06/10 10:00:10;;;;;;;10.45;5.45;;;;;;;;;;5079945;28;20059;-52
2022/06/10 10:03:11;;;;;;;6.55;4.70;;;;;;;;;;5079746;28;20487;-52
2022/06/10 10:05:40;;;;;;;8.35;4.70;;;;;;;;;;5015429;28;20103;-52
2022/06/10 10:08:05;;;;;;;8.23;5.28;;;;;;;;;;5085125;27;20526;-51
2022/06/10 10:10:30;;;;;;;7.50;4.90;;;;;;;;;;5066482;28;20031;-51
2022/06/10 10:12:55;;;;;;;5.57;4.28;;;;;;;;;;5073574;28;20056;-50
2022/06/10 10:15:42;;;;;;;7.85;4.22;;;;;;;;;;5077758;28;20402;-52
2022/06/10 10:18:13;;;;;;;5.63;4.18;;;;;;;;;;5078677;28;20092;-52
2022/06/10 10:20:51;;;;;;;5.53;4.15;;;;;;;;;;5076110;28;20027;-50
2022/06/10 10:23:25;;;;;;;7.63;3.38;;;;;;;;;;5080040;28;20030;-51
2022/06/10 10:25:51;;;;;;;6.85;3.80;;;;;;;;;;5078978;28;20020;-51
2022/06/10 10:28:23;;;;;;;4.47;3.25;;;;;;;;;;5074809;28;20027;-50
2022/06/10 10:31:04;;;;;;;5.70;3.15;;;;;;;;;;5075345;28;20437;-51
2022/06/10 10:33:29;;;;;;;5.65;3.45;;;;;;;;;;5078115;28;20020;-51
2022/06/10 10:35:55;;;;;;;5.68;3.15;;;;;;;;;;5080484;28;20501;-51
2022/06/10 10:38:30;;;;;;;6.32;3.50;;;;;;;;;;5078769;28;20431;-51
2022/06/10 10:40:55;;;;;;;5.47;3.08;;;;;;;;;;5076155;28;20032;-52
2022/06/10 10:43:28;;;;;;;5.15;3.45;;;;;;;;;;5076988;28;20550;-51
2022/06/10 10:46:02;;;;;;;7.70;3.88;;;;;;;;;;5072260;28;20063;-51
2022/06/10 10:48:31;;;;;;;4.88;3.30;;;;;;;;;;5079160;28;20475;-51
2022/06/10 10:51:11;;;;;;;4.63;3.28;;;;;;;;;;5076674;28;20044;-50
2022/06/10 10:53:50;;;;;;;4.72;3.33;;;;;;;;;;5075000;28;20139;-51
2022/06/10 10:56:16;;;;;;;4.97;2.90;;;;;;;;;;5062112;28;20115;-50
2022/06/10 10:58:52;;;;;;;4.30;2.67;;;;;;;;;;5072936;28;20733;-54
2022/06/10 11:01:43;;;;;;;5.20;2.67;;;;;;;;;;5078369;28;20161;-51
2022/06/10 11:04:09;;;;;;;4.38;2.55;;;;;;;;;;5073469;28;20724;-52
2022/06/10 11:06:36;;;;;;;3.47;2.90;;;;;;;;;;5078075;28;20008;-51
2022/06/10 11:09:15;;;;;;;5.80;3.38;;;;;;;;;;5072371;28;20008;-51
2022/06/10 11:11:41;;;;;;;5.37;3.57;;;;;;;;;;5065113;28;20487;-52
2022/06/10 11:14:17;;;;;;;4.75;3.25;;;;;;;;;;5076678;28;20483;-53
2022/06/10 11:16:44;;;;;;;4.45;3.13;;;;;;;;;;5069830;28;20020;-52
2022/06/10 11:19:14;;;;;;;3.33;2.80;;;;;;;;;;5068119;28;20707;-52
2022/06/10 11:21:48;;;;;;;4.82;3.55;;;;;;;;;;5081562;28;20089;-51
2022/06/10 11:24:14;;;;;;;3.85;3.00;;;;;;;;;;5073681;28;20849;-52
2022/06/10 11:26:40;;;;;;;7.15;3.33;;;;;;;;;;5067309;28;20038;-52
2022/06/10 11:29:07;;;;;;;9.05;4.05;;;;;;;;;;5068009;28;20048;-51
2022/06/10 11:31:33;;;;;;;7.75;3.90;;;;;;;;;;5069055;28;20059;-53
2022/06/10 11:33:58;;;;;;;6.03;3.75;;;;;;;;;;5070198;28;20061;-53
2022/06/10 11:36:27;;;;;;;8.02;4.18;;;;;;;;;;5078257;28;20076;-52
2022/06/10 11:38:54;;;;;;;8.20;4.20;;;;;;;;;;5068453;28;20027;-51
2022/06/10 11:41:23;;;;;;;6.13;4.10;;;;;;;;;;5074423;28;20020;-52
2022/06/10 11:43:49;;;;;;;;;;;;;;;;;;5071510;28;20510;-51
2022/06/10 11:46:24;;;;;;;8.02;4.20;;;;;;;;;;5068243;28;19913;-50
2022/06/10 11:49:08;;;;;;;5.15;3.95;;;;;;;;;;5098020;28;20073;-53
2022/06/10 11:51:45;;;;;;;5.00;3.78;;;;;;;;;;5068853;28;20035;-54
2022/06/10 11:54:17;;;;;;;4.93;3.90;;;;;;;;;;5098466;27;20027;-53
2022/06/10 12:00:02;;;;;;;4.63;3.85;;;;;;;;;;5067808;28;20036;-53
2022/06/10 12:02:32;;;;;;;8.18;3.88;;;;;;;;;;5069231;28;20134;-52
2022/06/10 12:05:16;;;;;;;4.53;3.65;;;;;;;;;;5082394;28;20108;-52
2022/06/10 12:07:44;;;;;;;5.60;3.95;;;;;;;;;;5068977;28;20466;-50
2022/06/10 12:10:12;;;;;;;5.55;3.70;;;;;;;;;;5100318;27;20055;-51
2022/06/10 12:12:39;;;;;;;4.50;3.35;;;;;;;;;;5103587;27;20016;-51
2022/06/10 12:15:15;;;;;;;4.78;3.38;;;;;;;;;;5083772;28;20021;-51
2022/06/10 12:17:42;;;;;;;4.13;3.08;;;;;;;;;;5074803;28;20042;-53
2022/06/10 12:20:07;;;;;;;4.07;2.97;;;;;;;;;;5078438;28;20017;-52
2022/06/10 12:22:32;;;;;;;4.17;2.77;;;;;;;;;;5081700;28;20047;-52
2022/06/10 12:24:58;;;;;;;4.78;3.10;;;;;;;;;;5080962;28;21053;-53
2022/06/10 12:27:35;;;;;;;4.35;3.15;;;;;;;;;;5073731;28;20126;-53
2022/06/10 12:30:17;;;;;;;4.38;3.35;;;;;;;;;;5076303;28;20067;-53
2022/06/10 12:32:56;;;;;;;3.92;3.40;;;;;;;;;;5072418;28;20032;-53
2022/06/10 12:35:28;;;;;;;4.00;3.30;;;;;;;;;;5075327;28;20016;-52
2022/06/10 12:38:04;;;;;;;4.75;3.47;;;;;;;;;;5071099;28;20663;-52
2022/06/10 12:40:39;;;;;;;6.78;4.18;;;;;;;;;;5068148;28;20514;-52
2022/06/10 12:43:06;;;;;;;4.65;3.40;;;;;;;;;;5067791;28;20025;-52
2022/06/10 12:45:37;;;;;;;6.55;3.88;;;;;;;;;;5070747;28;20028;-50
2022/06/10 12:48:07;;;;;;;6.03;4.20;;;;;;;;;;5080459;28;20502;-52
2022/06/10 12:50:35;;;;;;;7.30;4.28;;;;;;;;;;5057601;28;20039;-53
2022/06/10 12:53:19;;;;;;;4.82;4.10;;;;;;;;;;5068076;28;20319;-51
2022/06/10 12:55:44;;;;;;;6.00;4.22;;;;;;;;;;5067255;28;20020;-51
2022/06/10 12:58:28;;;;;;;5.03;3.80;;;;;;;;;;5063698;28;20542;-50
2022/06/10 13:01:10;;;;;;;5.35;3.92;;;;;;;;;;5066717;28;20103;-50
2022/06/10 13:03:37;;;;;;;6.20;4.28;;;;;;;;;;5067798;28;20088;-51
2022/06/10 13:06:04;;;;;;;6.60;4.22;;;;;;;;;;5073209;28;20024;-52
2022/06/10 13:08:35;;;;;;;6.10;4.15;;;;;;;;;;5073429;28;20032;-53
2022/06/10 13:11:00;;;;;;;6.22;5.05;;;;;;;;;;5066594;28;20119;-51
2022/06/10 13:13:27;;;;;;;6.63;4.60;;;;;;;;;;5069672;28;20107;-52
2022/06/10 13:15:54;;;;;;;5.93;4.55;;;;;;;;;;5068577;28;20016;-53
2022/06/10 13:18:26;;;;;;;5.47;4.32;;;;;;;;;;5067166;28;20534;-52
2022/06/10 13:20:51;;;;;;;7.50;4.80;;;;;;;;;;5070396;28;20643;-52
2022/06/10 13:23:19;;;;;;;6.53;3.93;;;;;;;;;;5071071;28;20020;-52
2022/06/10 13:25:52;;;;;;;5.45;4.45;;;;;;;;;;5072729;28;20278;-52
2022/06/10 13:28:23;;;;;;;5.35;4.32;;;;;;;;;;5068218;28;20119;-51
2022/06/10 13:30:49;;;;;;;8.32;5.03;;;;;;;;;;5071863;28;20082;-52
2022/06/10 13:33:16;;;;;;;8.55;4.90;;;;;;;;;;5072703;28;20024;-51
2022/06/10 13:35:45;;;;;;;6.70;4.47;;;;;;;;;;5075428;28;20016;-51
2022/06/10 13:38:15;;;;;;;6.10;4.80;;;;;;;;;;5071207;28;20027;-51
2022/06/10 13:40:40;;;;;;;;;;;;;;;;;;5070359;28;20028;-51
2022/06/10 13:43:06;;;;;;;8.03;4.60;;;;;;;;;;5070485;28;19912;-51
2022/06/10 13:45:31;;;;;;;6.32;4.80;;;;;;;;;;5065844;28;20435;-51
2022/06/10 13:48:09;;;;;;;6.05;4.43;;;;;;;;;;5064719;28;20109;-51
2022/06/10 13:53:06;;;;;;;6.28;4.65;;;;;;;;;;5066840;28;20017;-53
2022/06/10 13:55:36;;;;;;;7.90;4.80;;;;;;;;;;5070480;28;20108;-53
2022/06/10 13:58:01;;;;;;;6.47;4.22;;;;;;;;;;5069862;28;20035;-55
2022/06/10 14:00:28;;;;;;;5.80;4.25;;;;;;;;;;5075070;28;20490;-52
2022/06/10 14:02:53;;;;;;;5.75;4.45;;;;;;;;;;5068702;28;20024;-52
2022/06/10 14:05:20;;;;;;;5.80;4.30;;;;;;;;;;5071600;28;20534;-52
2022/06/10 14:07:45;;;;;;;6.28;4.70;;;;;;;;;;5074105;28;20432;-52
2022/06/10 14:10:24;;;;;;;5.13;4.30;;;;;;;;;;5070912;28;20479;-50
2022/06/10 14:12:59;;;;;;;6.85;4.53;;;;;;;;;;5074859;28;20096;-51
2022/06/10 14:15:26;;;;;;;5.35;4.82;;;;;;;;;;5079210;28;20016;-52
2022/06/10 14:17:56;;;;;;;6.78;4.40;;;;;;;;;;5078101;28;20019;-52
2022/06/10 14:20:23;;;;;;;14.52;5.18;;;;;;;;;;5080071;28;20020;-52
2022/06/10 14:22:48;;;;;;;7.53;5.00;;;;;;;;;;5077131;28;20110;-51
2022/06/10 14:25:13;;;;;;;5.20;4.15;;;;;;;;;;5080460;28;20526;-51
2022/06/10 14:27:59;;;;;;;5.75;5.03;;;;;;;;;;5078164;28;20023;-52
2022/06/10 14:30:26;;;;;;;6.45;4.90;;;;;;;;;;5067028;28;20726;-52
2022/06/10 14:32:51;;;;;;;6.30;4.88;;;;;;;;;;5074733;28;20036;-51
2022/06/10 14:35:42;;;;;;;6.33;4.67;;;;;;;;;;5078211;28;20027;-52
2022/06/10 14:38:14;;;;;;;6.38;4.53;;;;;;;;;;5066241;28;20271;-52
2022/06/10 14:40:58;;;;;;;6.35;5.00;;;;;;;;;;5069195;28;20028;-52
2022/06/10 14:43:25;;;;;;;6.75;4.85;;;;;;;;;;5066674;28;20024;-52
2022/06/10 14:46:05;;;;;;;5.65;4.63;;;;;;;;;;5078603;28;20391;-51
2022/06/10 14:48:34;;;;;;;5.30;4.43;;;;;;;;;;5074066;28;20017;-52
2022/06/10 14:51:16;;;;;;;6.57;5.05;;;;;;;;;;5066507;28;20024;-51
2022/06/10 14:53:43;;;;;;;6.45;5.13;;;;;;;;;;5076702;28;20024;-53
2022/06/10 14:56:13;;;;;;;8.90;5.40;;;;;;;;;;5075224;28;21382;-52
2022/06/10 14:58:38;;;;;;;7.53;4.80;;;;;;;;;;5073257;28;20027;-51
2022/06/10 15:01:04;;;;;;;10.02;5.38;;;;;;;;;;5077320;28;20028;-50
2022/06/10 15:03:29;;;;;;;9.32;5.68;;;;;;;;;;5078300;28;20012;-50
2022/06/10 15:06:17;;;;;;;12.17;7.90;;;;;;;;;;5067411;28;20032;-51
2022/06/10 15:09:21;;;;;;;10.95;7.80;;;;;;;;;;5070646;28;20513;-52
2022/06/10 15:11:46;;;;;;;16.15;10.30;;;;;;;;;;5034858;28;20037;-51
2022/06/10 15:14:12;;;;;;;19.65;13.90;;;;;;;;;;5033708;28;20804;-52
2022/06/10 15:16:40;;;;;;;12.40;8.63;;;;;;;;;;5053139;28;20012;-54